CheckWX is a tool to help pilots better visualize weather data.  It is not intended as a substitute for an official pre-flight weather briefing.

09:24:14 UTC

KHEY METAR
Hanchey AHP (Fort Rucker) Heliport
Fort Rucker Ozark, Alabama, USA
Current

26 mins ago

KHEY 250858Z AUTO 08004KT 9SM SCT003 23/23 A2995 RMK AO2 SLP141 60000 T02320232 55010
Observed
Aug-25 @ 08:58 UTC
Wind
  • 080° at 4 KTS
Visibility
9 SM
Flight Rules
VFR
Cloud Levels
  • Scattered at 300' AGL
Temperature
23°C / 73°F
Dewpoint
23°C / 73°F
Humidity
100%
Altimeter
29.95" Hg
Pressure
1014.22 hPa
Previous

48 mins ago

KHEY 250836Z AUTO 09004KT 10SM FEW003 23/23 A2995 RMK AO2 SLP141
Observed
Aug-25 @ 08:36 UTC
Wind
  • 090° at 4 KTS
Visibility
10 SM
Flight Rules
VFR
Cloud Levels
  • Few at 300' AGL
Temperature
23°C / 73°F
Dewpoint
23°C / 73°F
Humidity
100%
Altimeter
29.95" Hg
Pressure
1014.22 hPa
Previous

1 hour ago

KHEY 250758Z AUTO 07006KT 10SM FEW190 24/24 A2994 RMK AO2 SLP137 T02360236 403410222
Observed
Aug-25 @ 07:58 UTC
Wind
  • 070° at 6 KTS
Visibility
10 SM
Flight Rules
VFR
Cloud Levels
  • Few at 19,000' AGL
Temperature
24°C / 75°F
Dewpoint
24°C / 75°F
Humidity
100%
Altimeter
29.94" Hg
Pressure
1013.92 hPa